Time;durP1;ratioP1;P1;durP2;ratioP2;P2;SDS_P1;SDS_P2;PMS_P1;PMS_P2;Temp;Humidity;BMP_temperature;BMP_pressure;BME280_temperature;BME280_humidity;BME280_pressure;Samples;Min_cycle;Max_cycle;Signal;HPM_P1;HPM_P2
2021/03/11 00:00:46;;;;;;;4.28;2.00;;;24.60;77.60;;;;;;5071863;28;20021;-55
2021/03/11 00:03:16;;;;;;;3.88;1.60;;;24.60;77.60;;;;;;5071896;28;20028;-59
2021/03/11 00:05:44;;;;;;;4.13;1.60;;;24.60;77.40;;;;;;5071950;28;20055;-62
2021/03/11 00:08:11;;;;;;;7.05;2.03;;;24.60;77.50;;;;;;5072050;28;20040;-65
2021/03/11 00:10:40;;;;;;;3.78;1.88;;;24.60;77.30;;;;;;5071264;28;20104;-59
2021/03/11 00:13:09;;;;;;;2.50;1.58;;;24.60;77.40;;;;;;5071107;28;20040;-62
2021/03/11 00:15:39;;;;;;;3.53;1.67;;;24.60;77.50;;;;;;5070087;28;20044;-61
2021/03/11 00:18:11;;;;;;;11.52;2.83;;;24.60;77.60;;;;;;5071927;28;20040;-55
2021/03/11 00:20:39;;;;;;;4.70;1.90;;;24.60;77.70;;;;;;5071610;28;20093;-53
2021/03/11 00:23:06;;;;;;;4.47;1.83;;;24.60;77.50;;;;;;5071772;28;20447;-57
2021/03/11 00:25:35;;;;;;;6.97;1.73;;;24.60;77.60;;;;;;5071685;28;20020;-59
2021/03/11 00:28:05;;;;;;;3.35;1.80;;;24.60;77.60;;;;;;5071600;28;20035;-51
2021/03/11 00:30:33;;;;;;;3.20;1.80;;;24.60;77.50;;;;;;5071304;28;20024;-53
2021/03/11 00:33:00;;;;;;;2.47;1.17;;;24.60;77.80;;;;;;5071671;28;20029;-65
2021/03/11 00:35:28;;;;;;;5.68;1.95;;;24.60;77.90;;;;;;5072104;28;20021;-61
2021/03/11 00:37:56;;;;;;;4.90;1.75;;;24.60;78.00;;;;;;5071922;28;20108;-60
2021/03/11 00:40:24;;;;;;;5.55;1.90;;;24.70;77.90;;;;;;5070317;28;20428;-56
2021/03/11 00:42:51;;;;;;;2.92;1.50;;;24.70;77.70;;;;;;5071381;28;20025;-58
2021/03/11 00:45:19;;;;;;;6.00;1.80;;;24.70;77.30;;;;;;5071756;28;20033;-55
2021/03/11 00:47:47;;;;;;;4.03;2.03;;;24.80;77.30;;;;;;5072071;28;20017;-58
2021/03/11 00:50:17;;;;;;;8.15;2.25;;;24.80;77.20;;;;;;5070060;28;20032;-58
2021/03/11 00:52:45;;;;;;;5.05;1.83;;;24.80;77.10;;;;;;5071473;28;20077;-60
2021/03/11 00:55:13;;;;;;;9.90;2.45;;;24.90;77.00;;;;;;5072650;28;20048;-62
2021/03/11 00:57:41;;;;;;;3.47;1.90;;;24.90;77.30;;;;;;5075033;28;20103;-57
2021/03/11 01:00:11;;;;;;;7.82;1.98;;;24.90;76.70;;;;;;5074890;28;20113;-54
2021/03/11 01:02:38;;;;;;;5.95;1.83;;;25.00;76.60;;;;;;5075542;28;20052;-60
2021/03/11 01:05:07;;;;;;;6.18;1.90;;;25.00;76.60;;;;;;5075255;28;20050;-57
2021/03/11 01:07:34;;;;;;;3.80;1.80;;;25.00;76.10;;;;;;5075309;28;20439;-62
2021/03/11 01:10:01;;;;;;;4.53;2.05;;;25.10;76.10;;;;;;5075496;28;20033;-54
2021/03/11 01:12:29;;;;;;;4.28;1.65;;;25.20;75.90;;;;;;5075300;28;20508;-63
2021/03/11 01:14:56;;;;;;;6.13;2.10;;;25.20;75.70;;;;;;5073798;28;20421;-60
2021/03/11 01:17:23;;;;;;;4.53;1.52;;;25.30;75.20;;;;;;5075274;28;20081;-55
2021/03/11 01:19:51;;;;;;;4.28;1.50;;;25.40;74.80;;;;;;5075397;28;20067;-52
2021/03/11 01:22:19;;;;;;;2.75;1.40;;;25.50;75.10;;;;;;5070131;28;20033;-56
2021/03/11 01:24:46;;;;;;;7.30;2.25;;;25.50;74.80;;;;;;5074998;28;20077;-56
2021/03/11 01:27:13;;;;;;;3.58;1.63;;;25.60;74.70;;;;;;5075251;28;20028;-65
2021/03/11 01:29:41;;;;;;;4.38;1.90;;;25.60;74.30;;;;;;5074803;28;20108;-62
2021/03/11 01:32:08;;;;;;;10.93;2.28;;;25.70;74.30;;;;;;5074463;28;20039;-59
2021/03/11 01:34:36;;;;;;;3.72;1.50;;;25.80;74.20;;;;;;5074702;28;20025;-55
2021/03/11 01:37:03;;;;;;;4.72;1.88;;;25.80;73.80;;;;;;5074594;28;20025;-61
2021/03/11 01:39:30;;;;;;;8.30;2.13;;;25.90;73.60;;;;;;5074684;28;20097;-64
2021/03/11 01:41:58;;;;;;;5.75;1.70;;;26.10;72.80;;;;;;5075058;28;20029;-59
2021/03/11 01:44:25;;;;;;;3.92;1.50;;;26.20;72.50;;;;;;5074183;28;20436;-70
2021/03/11 01:46:52;;;;;;;3.25;1.70;;;26.20;72.50;;;;;;5074476;28;20359;-61
2021/03/11 01:49:20;;;;;;;4.20;1.65;;;26.30;72.60;;;;;;5074563;28;20029;-60
2021/03/11 01:51:48;;;;;;;4.53;1.50;;;26.40;72.20;;;;;;5073728;28;20032;-62
2021/03/11 01:54:17;;;;;;;8.27;1.98;;;26.40;71.80;;;;;;5073943;28;20035;-57
2021/03/11 01:56:45;;;;;;;4.93;1.55;;;26.50;71.60;;;;;;5074226;28;20532;-60
2021/03/11 01:59:12;;;;;;;4.93;1.50;;;26.60;71.20;;;;;;5073953;28;20024;-61
2021/03/11 02:01:40;;;;;;;5.40;2.08;;;26.70;70.40;;;;;;5073672;28;20362;-67
2021/03/11 02:04:08;;;;;;;5.95;2.47;;;26.70;70.30;;;;;;5073211;28;20033;-63
2021/03/11 02:06:35;;;;;;;4.35;1.50;;;26.70;70.10;;;;;;5073386;28;20475;-67
2021/03/11 02:09:05;;;;;;;6.07;1.55;;;26.60;71.10;;;;;;5073805;28;20031;-64
2021/03/11 02:11:34;;;;;;;5.50;2.47;;;26.60;70.30;;;;;;5072273;28;20663;-61
2021/03/11 02:14:30;;;;;;;7.65;2.17;;;26.60;71.30;;;;;;5073144;28;20028;-65
2021/03/11 02:17:03;;;;;;;7.82;1.90;;;26.60;71.50;;;;;;5065803;28;20032;-57
2021/03/11 02:19:54;;;;;;;5.13;1.63;;;26.60;71.50;;;;;;5069153;28;20124;-59
2021/03/11 02:22:29;;;;;;;6.07;1.70;;;26.60;71.70;;;;;;5073110;28;20033;-54
2021/03/11 02:25:35;;;;;;;2.20;1.30;;;26.60;70.60;;;;;;5069596;28;20025;-68
2021/03/11 02:28:36;;;;;;;4.82;1.85;;;26.60;71.30;;;;;;5067970;28;20036;-53
2021/03/11 02:31:04;;;;;;;3.13;1.60;;;26.60;71.60;;;;;;5072418;28;20441;-55
2021/03/11 02:33:34;;;;;;;6.78;2.75;;;26.60;71.50;;;;;;5071843;28;20072;-70
2021/03/11 02:36:03;;;;;;;4.20;1.73;;;26.70;71.30;;;;;;5066795;28;20048;-60
2021/03/11 02:38:31;;;;;;;4.97;1.63;;;26.60;71.80;;;;;;5066297;28;20020;-63
2021/03/11 02:41:01;;;;;;;8.98;1.85;;;26.60;72.50;;;;;;5068684;28;20183;-65
2021/03/11 02:43:29;;;;;;;3.50;1.50;;;26.60;72.10;;;;;;5070478;28;20032;-65
2021/03/11 02:45:57;;;;;;;3.40;1.30;;;26.50;72.00;;;;;;5070099;28;20387;-67
2021/03/11 02:48:26;;;;;;;14.00;2.13;;;26.50;72.50;;;;;;5069800;28;20024;-54
2021/03/11 02:50:55;;;;;;;7.97;2.10;;;26.50;73.00;;;;;;5068788;28;20035;-67
2021/03/11 02:53:23;;;;;;;7.85;2.03;;;26.40;72.80;;;;;;5070767;28;20382;-67
2021/03/11 02:55:51;;;;;;;8.93;2.05;;;26.40;72.20;;;;;;5070610;28;20455;-59
2021/03/11 02:58:19;;;;;;;11.10;2.35;;;26.40;73.30;;;;;;5068797;28;20154;-68
2021/03/11 03:00:48;;;;;;;5.78;1.67;;;26.40;73.50;;;;;;5066555;28;20125;-60
2021/03/11 03:03:16;;;;;;;5.63;1.85;;;26.40;73.50;;;;;;5070211;28;20021;-68
2021/03/11 03:05:43;;;;;;;8.32;1.50;;;26.30;73.90;;;;;;5068759;28;20093;-63
2021/03/11 03:08:12;;;;;;;7.20;2.40;;;26.30;73.90;;;;;;5070495;28;20106;-67
2021/03/11 03:10:40;;;;;;;6.72;2.05;;;26.30;73.90;;;;;;5067280;28;20039;-71
2021/03/11 03:13:15;;;;;;;7.10;2.40;;;26.30;73.80;;;;;;5071285;28;20021;-68
2021/03/11 03:15:44;;;;;;;6.22;2.03;;;26.30;73.60;;;;;;5070084;28;20025;-66
2021/03/11 03:18:19;;;;;;;5.73;1.60;;;26.30;74.00;;;;;;5068190;28;20052;-62
2021/03/11 03:20:48;;;;;;;11.15;2.17;;;26.20;74.00;;;;;;5065758;28;20451;-59
2021/03/11 03:23:16;;;;;;;6.28;1.60;;;26.20;74.50;;;;;;5070647;28;20390;-61
2021/03/11 03:25:46;;;;;;;8.80;2.53;;;26.20;74.50;;;;;;5069795;28;20058;-58
2021/03/11 03:28:14;;;;;;;9.77;2.28;;;26.20;74.30;;;;;;5069552;28;20024;-55
2021/03/11 03:30:45;;;;;;;9.52;2.53;;;26.20;74.50;;;;;;5066048;28;20074;-52
2021/03/11 03:33:15;;;;;;;11.68;1.55;;;26.20;74.40;;;;;;5067997;28;20027;-51
2021/03/11 03:35:43;;;;;;;5.78;1.85;;;26.10;74.70;;;;;;5072265;28;20012;-54
2021/03/11 03:38:11;;;;;;;9.13;1.88;;;26.10;75.10;;;;;;5072172;28;20445;-55
2021/03/11 03:40:39;;;;;;;7.00;2.20;;;26.00;74.00;;;;;;5072073;28;20081;-59
2021/03/11 03:43:23;;;;;;;5.97;2.03;;;26.00;75.10;;;;;;5072401;28;20020;-61
2021/03/11 03:46:02;;;;;;;6.70;1.77;;;26.00;75.10;;;;;;5071950;28;20474;-57
2021/03/11 03:48:53;;;;;;;8.25;1.90;;;26.00;75.00;;;;;;5071333;28;20037;-58
2021/03/11 03:51:29;;;;;;;8.32;2.45;;;26.00;75.70;;;;;;5072135;28;20032;-55
2021/03/11 03:54:10;;;;;;;5.45;1.75;;;26.00;75.70;;;;;;5072735;28;20138;-62
2021/03/11 03:56:50;;;;;;;12.25;2.78;;;25.90;75.90;;;;;;5071965;28;20093;-60
2021/03/11 03:59:25;;;;;;;8.45;1.52;;;25.90;75.70;;;;;;5071073;28;20507;-55
2021/03/11 04:01:58;;;;;;;5.78;1.85;;;26.00;75.80;;;;;;5072164;28;20028;-55
2021/03/11 04:04:28;;;;;;;4.50;1.65;;;26.00;75.60;;;;;;5071825;28;20053;-52
2021/03/11 04:06:57;;;;;;;6.78;1.60;;;25.90;75.60;;;;;;5066370;28;20059;-54
2021/03/11 04:09:26;;;;;;;6.68;2.03;;;25.90;75.90;;;;;;5065538;28;20103;-58
2021/03/11 04:11:53;;;;;;;9.85;2.83;;;25.90;76.00;;;;;;5069142;28;20506;-53
2021/03/11 04:14:22;;;;;;;5.15;2.53;;;25.90;76.10;;;;;;5067646;28;20067;-54
2021/03/11 04:16:52;;;;;;;4.40;1.80;;;25.90;76.20;;;;;;5069230;28;20032;-55
2021/03/11 04:19:20;;;;;;;5.20;1.92;;;25.90;75.70;;;;;;5069453;28;20092;-55
2021/03/11 04:21:48;;;;;;;4.60;2.15;;;25.90;76.00;;;;;;5068379;28;20395;-54
2021/03/11 04:24:16;;;;;;;6.15;1.90;;;25.90;75.60;;;;;;5065761;28;20367;-57
2021/03/11 04:26:44;;;;;;;4.35;2.17;;;25.90;76.10;;;;;;5070458;28;20024;-56
2021/03/11 04:29:13;;;;;;;5.72;2.00;;;25.90;75.60;;;;;;5070474;28;20027;-57
2021/03/11 04:31:41;;;;;;;9.90;2.30;;;26.00;75.90;;;;;;5071585;28;20041;-53
2021/03/11 04:34:09;;;;;;;6.70;2.20;;;25.90;76.10;;;;;;5069510;28;20626;-58
2021/03/11 04:36:37;;;;;;;6.15;2.10;;;25.90;75.90;;;;;;5073752;28;20064;-53
2021/03/11 04:39:05;;;;;;;7.65;2.15;;;25.90;75.80;;;;;;5072632;28;20132;-51
2021/03/11 04:41:32;;;;;;;8.13;2.05;;;25.90;75.90;;;;;;5073031;28;20047;-49
2021/03/11 04:44:03;;;;;;;5.95;2.00;;;26.00;75.90;;;;;;5069183;28;20021;-57
2021/03/11 04:46:31;;;;;;;8.23;1.92;;;25.90;75.90;;;;;;5072790;28;20108;-56
2021/03/11 04:49:03;;;;;;;5.57;1.60;;;25.90;76.00;;;;;;5071388;28;20372;-55
2021/03/11 04:51:32;;;;;;;7.65;2.53;;;26.00;76.30;;;;;;5072648;28;20028;-52
2021/03/11 04:54:00;;;;;;;6.95;2.05;;;25.90;75.90;;;;;;5069454;28;20364;-62
2021/03/11 04:56:28;;;;;;;6.75;1.85;;;25.90;76.10;;;;;;5073202;28;20091;-60
2021/03/11 04:58:56;;;;;;;5.60;1.88;;;26.00;76.10;;;;;;5072852;28;20402;-61
2021/03/11 05:01:30;;;;;;;5.88;2.00;;;26.00;75.80;;;;;;5072558;28;20509;-54
2021/03/11 05:04:01;;;;;;;5.88;2.17;;;26.00;75.50;;;;;;5068579;28;20416;-59
2021/03/11 05:06:28;;;;;;;5.95;1.27;;;26.00;75.80;;;;;;5072562;28;20040;-56
2021/03/11 05:08:56;;;;;;;7.88;1.92;;;26.00;75.70;;;;;;5073033;28;20058;-65
2021/03/11 05:11:23;;;;;;;4.57;2.03;;;26.00;75.70;;;;;;5072104;28;20068;-58
2021/03/11 05:13:51;;;;;;;5.90;2.35;;;26.00;75.60;;;;;;5068879;28;20467;-61
2021/03/11 05:16:18;;;;;;;6.60;2.08;;;26.10;75.60;;;;;;5073196;28;20113;-56
2021/03/11 05:18:46;;;;;;;6.78;1.90;;;26.10;75.60;;;;;;5072166;28;20406;-55
2021/03/11 05:21:13;;;;;;;8.85;2.20;;;26.10;75.60;;;;;;5072604;28;21771;-56
2021/03/11 05:23:41;;;;;;;6.05;2.30;;;26.10;75.70;;;;;;5068579;28;20025;-61
2021/03/11 05:26:11;;;;;;;5.05;1.50;;;26.10;75.40;;;;;;5073182;28;20038;-60
2021/03/11 05:28:39;;;;;;;6.65;2.30;;;26.10;75.70;;;;;;5072146;28;20040;-57
2021/03/11 05:31:06;;;;;;;5.60;1.40;;;26.10;75.70;;;;;;5072180;28;20067;-60
2021/03/11 05:33:34;;;;;;;3.83;1.48;;;26.10;75.80;;;;;;5068898;28;20483;-62
2021/03/11 05:36:01;;;;;;;3.00;1.33;;;26.20;75.80;;;;;;5071760;28;20021;-54
2021/03/11 05:38:29;;;;;;;4.13;1.38;;;26.20;75.40;;;;;;5072020;28;20043;-65
2021/03/11 05:40:56;;;;;;;6.78;2.35;;;26.20;75.50;;;;;;5071486;28;20505;-64
2021/03/11 05:43:25;;;;;;;4.13;1.73;;;26.20;75.50;;;;;;5066901;28;20083;-53
2021/03/11 05:45:53;;;;;;;7.65;2.03;;;26.20;75.40;;;;;;5070778;28;20107;-59
2021/03/11 05:48:21;;;;;;;6.65;2.33;;;26.20;75.60;;;;;;5071528;28;20029;-48
2021/03/11 05:50:51;;;;;;;14.25;3.30;;;26.20;75.50;;;;;;5072239;28;20552;-53
2021/03/11 05:53:19;;;;;;;8.57;2.70;;;26.30;75.30;;;;;;5067842;28;20702;-52
2021/03/11 05:55:49;;;;;;;6.07;2.13;;;26.00;75.70;;;;;;5072152;28;20115;-49
2021/03/11 05:58:20;;;;;;;7.18;2.40;;;25.90;76.20;;;;;;5071611;28;20020;-52
2021/03/11 06:00:47;;;;;;;14.68;3.53;;;25.80;77.30;;;;;;5070336;28;20025;-53
2021/03/11 06:03:15;;;;;;;14.07;4.18;;;25.50;77.70;;;;;;5068381;28;20025;-51
2021/03/11 06:05:43;;;;;;;14.00;3.47;;;25.50;77.20;;;;;;5071593;28;20088;-52
2021/03/11 06:08:11;;;;;;;11.95;3.97;;;25.40;77.70;;;;;;5070832;28;20020;-52
2021/03/11 06:10:41;;;;;;;10.60;3.53;;;25.60;77.60;;;;;;5071761;28;20073;-58
2021/03/11 06:13:10;;;;;;;11.15;3.33;;;25.30;77.90;;;;;;5068433;28;20043;-56
2021/03/11 06:15:40;;;;;;;13.40;4.25;;;25.00;79.40;;;;;;5071742;28;20535;-51
2021/03/11 06:18:10;;;;;;;14.30;4.57;;;24.90;80.20;;;;;;5070107;28;20093;-55
2021/03/11 06:20:38;;;;;;;13.23;3.78;;;25.00;80.10;;;;;;5066136;28;20026;-54
2021/03/11 06:23:06;;;;;;;16.50;4.20;;;25.00;80.70;;;;;;5065561;28;20173;-56
2021/03/11 06:25:35;;;;;;;25.02;10.93;;;25.20;80.10;;;;;;5070149;28;20109;-50
2021/03/11 06:28:03;;;;;;;22.85;8.38;;;25.50;79.40;;;;;;5071263;28;20024;-48
2021/03/11 06:30:35;;;;;;;24.88;11.40;;;25.50;78.80;;;;;;5070967;28;20386;-46
2021/03/11 06:33:05;;;;;;;19.33;13.65;;;25.60;78.70;;;;;;5066990;28;20525;-50
2021/03/11 06:35:33;;;;;;;38.53;9.52;;;25.60;78.40;;;;;;5071267;28;20382;-58
2021/03/11 06:38:01;;;;;;;18.05;8.70;;;25.70;78.70;;;;;;5070113;28;20028;-53
2021/03/11 06:40:31;;;;;;;19.90;5.82;;;25.70;78.40;;;;;;5069384;28;20124;-53
2021/03/11 06:43:15;;;;;;;14.65;6.38;;;25.70;78.10;;;;;;5073249;28;20062;-50
2021/03/11 06:45:42;;;;;;;14.57;4.65;;;25.70;78.40;;;;;;5073101;28;20671;-51
2021/03/11 06:48:24;;;;;;;14.60;5.53;;;25.50;78.70;;;;;;5073132;28;20028;-46
2021/03/11 06:50:52;;;;;;;17.42;6.13;;;25.60;79.00;;;;;;5072777;28;20482;-50
2021/03/11 06:53:20;;;;;;;12.50;4.70;;;25.60;79.00;;;;;;5072367;28;20051;-49
2021/03/11 06:55:47;;;;;;;13.40;5.55;;;25.60;79.30;;;;;;5073514;28;20085;-51
2021/03/11 06:58:26;;;;;;;16.20;3.55;;;25.60;79.30;;;;;;5071562;28;20048;-49
2021/03/11 07:01:09;;;;;;;13.02;3.92;;;25.60;79.30;;;;;;5072664;28;20024;-53
2021/03/11 07:03:43;;;;;;;14.80;3.78;;;25.60;79.80;;;;;;5072726;28;20020;-49
2021/03/11 07:06:24;;;;;;;12.75;3.63;;;25.60;79.90;;;;;;5072766;28;20102;-49
2021/03/11 07:08:52;;;;;;;10.75;3.45;;;25.60;79.90;;;;;;5071738;28;20475;-49
2021/03/11 07:11:20;;;;;;;18.13;3.90;;;25.50;80.50;;;;;;5072519;28;20040;-47
2021/03/11 07:13:49;;;;;;;15.13;3.58;;;25.50;80.90;;;;;;5072833;28;20081;-50
2021/03/11 07:16:21;;;;;;;12.93;3.45;;;25.50;80.90;;;;;;5072398;28;20100;-53
2021/03/11 07:19:10;;;;;;;13.60;3.38;;;25.50;80.90;;;;;;5072256;28;20024;-51
2021/03/11 07:21:45;;;;;;;14.55;3.63;;;25.50;81.40;;;;;;5071003;28;20118;-51
2021/03/11 07:24:30;;;;;;;11.82;3.92;;;25.50;81.60;;;;;;5070793;28;20021;-50
2021/03/11 07:26:59;;;;;;;19.58;4.28;;;25.50;82.10;;;;;;5070961;28;20545;-48
2021/03/11 07:29:27;;;;;;;15.13;4.00;;;25.50;82.70;;;;;;5072039;28;20119;-53
2021/03/11 07:31:59;;;;;;;15.88;3.17;;;25.50;83.60;;;;;;5072132;28;20033;-51
2021/03/11 07:34:35;;;;;;;14.38;3.47;;;25.50;83.60;;;;;;5072405;28;20436;-56
2021/03/11 07:37:03;;;;;;;16.98;4.03;;;25.60;83.80;;;;;;5072321;28;20032;-52
2021/03/11 07:39:38;;;;;;;16.35;3.65;;;25.60;83.50;;;;;;5071469;28;20186;-55
2021/03/11 07:42:09;;;;;;;14.63;4.32;;;25.60;83.00;;;;;;5072207;28;20074;-55
2021/03/11 07:44:37;;;;;;;21.48;4.10;;;25.60;83.90;;;;;;5072906;28;20043;-53
2021/03/11 07:47:06;;;;;;;19.05;5.07;;;25.50;84.70;;;;;;5072598;28;20100;-50
2021/03/11 07:49:35;;;;;;;15.80;4.38;;;25.60;85.30;;;;;;5071823;28;20107;-49
2021/03/11 07:52:07;;;;;;;25.83;5.50;;;25.50;84.20;;;;;;5072566;28;20028;-50
2021/03/11 07:54:35;;;;;;;15.20;3.40;;;25.50;86.70;;;;;;5072831;28;20174;-54
2021/03/11 07:57:04;;;;;;;29.95;5.65;;;25.40;86.50;;;;;;5072626;28;20107;-55
2021/03/11 07:59:32;;;;;;;22.58;5.68;;;25.50;86.20;;;;;;5072479;28;20386;-59
2021/03/11 08:02:11;;;;;;;23.10;5.28;;;25.40;87.50;;;;;;5072306;28;20020;-55
2021/03/11 08:04:43;;;;;;;19.42;4.03;;;25.40;88.50;;;;;;5071516;28;20041;-53
2021/03/11 08:07:36;;;;;;;20.90;4.38;;;25.30;86.00;;;;;;5072521;28;20036;-50
2021/03/11 08:10:20;;;;;;;17.77;4.78;;;25.20;85.50;;;;;;5071252;28;20020;-56
2021/03/11 08:12:48;;;;;;;13.10;3.58;;;25.30;85.10;;;;;;5072133;28;20132;-56
2021/03/11 08:15:18;;;;;;;13.00;3.33;;;25.20;85.40;;;;;;5072317;28;20111;-51
2021/03/11 08:17:48;;;;;;;25.60;4.38;;;25.20;86.40;;;;;;5072786;28;20103;-59
2021/03/11 08:20:21;;;;;;;14.00;4.22;;;25.20;86.70;;;;;;5072997;28;20374;-63
2021/03/11 08:22:52;;;;;;;18.30;4.03;;;25.20;85.80;;;;;;5073506;28;20029;-58
2021/03/11 08:25:36;;;;;;;13.20;3.78;;;25.10;88.80;;;;;;5072058;28;20020;-56
2021/03/11 08:28:10;;;;;;;22.55;4.82;;;25.20;88.40;;;;;;5071524;28;20028;-57
2021/03/11 08:30:40;;;;;;;14.65;4.32;;;25.20;85.10;;;;;;5072878;28;20048;-56
2021/03/11 08:33:12;;;;;;;23.77;4.80;;;25.40;89.90;;;;;;5091730;28;20058;-53
2021/03/11 08:35:44;;;;;;;11.02;3.72;;;25.40;87.00;;;;;;5091383;28;20331;-59
2021/03/11 08:38:21;;;;;;;18.67;4.13;;;25.40;88.10;;;;;;5090179;28;20039;-58
2021/03/11 08:41:05;;;;;;;12.23;2.90;;;25.40;86.40;;;;;;5090860;28;20024;-56
2021/03/11 08:43:38;;;;;;;13.48;3.70;;;25.40;86.30;;;;;;5091976;28;20016;-59
2021/03/11 08:46:10;;;;;;;12.65;3.65;;;25.30;85.20;;;;;;5091239;28;20025;-59
2021/03/11 08:48:43;;;;;;;14.55;3.85;;;25.20;84.20;;;;;;5088826;28;20121;-63
2021/03/11 08:51:19;;;;;;;15.70;4.53;;;25.20;84.50;;;;;;5089741;28;20027;-68
2021/03/11 08:53:53;;;;;;;14.35;3.72;;;25.20;84.70;;;;;;5089848;28;20406;-61
2021/03/11 08:56:20;;;;;;;16.50;3.67;;;25.10;84.10;;;;;;5089503;28;20100;-60
2021/03/11 08:59:09;;;;;;;10.93;3.40;;;25.10;84.70;;;;;;5081904;28;20108;-58
2021/03/11 09:01:41;;;;;;;13.10;3.42;;;25.00;85.30;;;;;;5069974;28;20052;-65
2021/03/11 09:04:24;;;;;;;13.45;3.55;;;25.00;84.00;;;;;;5071449;28;20445;-61
2021/03/11 09:06:58;;;;;;;17.33;4.15;;;24.90;84.10;;;;;;5071343;28;20044;-54
2021/03/11 09:09:45;;;;;;;13.15;3.35;;;25.00;85.40;;;;;;5070715;28;20028;-61
2021/03/11 09:12:16;;;;;;;10.52;3.08;;;25.00;84.30;;;;;;5068764;28;20044;-57
2021/03/11 09:14:48;;;;;;;12.30;3.58;;;24.90;83.70;;;;;;5069802;28;20032;-60
2021/03/11 09:17:19;;;;;;;;;;;24.90;83.90;;;;;;5073861;28;20052;-62
2021/03/11 09:19:52;;;;;;;10.30;3.75;;;24.90;85.30;;;;;;5074193;28;19905;-59
2021/03/11 09:22:20;;;;;;;19.60;4.30;;;24.90;83.90;;;;;;5073868;28;20028;-53
2021/03/11 09:25:05;;;;;;;15.95;3.63;;;24.90;83.70;;;;;;5074104;28;20066;-55
2021/03/11 09:27:34;;;;;;;12.38;3.92;;;24.90;85.20;;;;;;5073548;28;20021;-62
2021/03/11 09:30:12;;;;;;;16.00;5.32;;;24.90;84.60;;;;;;5074094;28;20085;-54
2021/03/11 09:32:40;;;;;;;19.02;3.83;;;25.00;86.70;;;;;;5074544;28;20123;-63
2021/03/11 09:35:10;;;;;;;14.15;4.38;;;24.90;85.60;;;;;;5074647;28;20031;-54
2021/03/11 09:37:56;;;;;;;13.60;3.80;;;25.00;85.40;;;;;;5074404;28;20548;-70
2021/03/11 09:40:33;;;;;;;12.93;4.80;;;25.00;87.20;;;;;;5073870;28;20597;-69
2021/03/11 09:43:04;;;;;;;8.90;3.95;;;25.10;87.20;;;;;;5085132;28;20035;-67
2021/03/11 09:45:45;;;;;;;9.23;3.00;;;25.10;86.50;;;;;;5094545;28;20028;-70
2021/03/11 09:48:26;;;;;;;11.40;3.95;;;25.10;85.80;;;;;;5094779;28;20016;-68
2021/03/11 09:51:03;;;;;;;11.95;4.28;;;25.20;85.50;;;;;;5094813;28;20028;-70
2021/03/11 09:53:43;;;;;;;15.68;4.28;;;25.20;86.80;;;;;;5077323;28;20032;-63
2021/03/11 09:56:25;;;;;;;13.88;4.85;;;25.20;87.00;;;;;;5068042;28;20029;-63
2021/03/11 09:58:55;;;;;;;;;;;25.20;86.50;;;;;;5066079;28;20024;-61
2021/03/11 10:01:27;;;;;;;10.65;4.70;;;25.20;86.20;;;;;;5066863;28;19904;-63
2021/03/11 10:03:55;;;;;;;15.88;4.55;;;25.20;85.80;;;;;;5070470;28;20035;-58
2021/03/11 10:06:23;;;;;;;14.55;5.32;;;25.20;85.70;;;;;;5063785;28;20038;-64
2021/03/11 10:08:59;;;;;;;14.48;4.82;;;25.20;85.70;;;;;;5068676;28;20058;-56
2021/03/11 10:11:52;;;;;;;18.02;5.50;;;25.20;85.80;;;;;;5070407;28;20039;-60
2021/03/11 10:14:25;;;;;;;17.02;4.85;;;25.30;85.80;;;;;;5068957;28;20094;-61
2021/03/11 10:16:55;;;;;;;13.77;4.53;;;25.20;85.80;;;;;;5068265;28;20143;-58
2021/03/11 10:19:27;;;;;;;14.27;4.72;;;25.20;85.70;;;;;;5068220;28;20037;-50
2021/03/11 10:22:05;;;;;;;14.57;4.82;;;25.20;85.60;;;;;;5071497;28;20429;-57
2021/03/11 10:24:49;;;;;;;14.40;4.88;;;25.20;85.60;;;;;;5065673;28;20078;-55
2021/03/11 10:27:30;;;;;;;13.02;4.35;;;25.20;85.60;;;;;;5069538;28;20028;-61
2021/03/11 10:30:23;;;;;;;12.82;4.07;;;25.20;85.70;;;;;;5071922;28;20016;-60
2021/03/11 10:32:58;;;;;;;17.92;5.45;;;25.20;85.70;;;;;;5069014;28;20044;-63
2021/03/11 10:35:35;;;;;;;14.95;4.65;;;25.20;85.80;;;;;;5068027;28;20077;-59
2021/03/11 10:38:26;;;;;;;16.15;4.95;;;25.20;85.90;;;;;;5071305;28;20033;-56
2021/03/11 10:41:08;;;;;;;13.02;4.55;;;25.20;85.90;;;;;;5071497;28;20032;-55
2021/03/11 10:43:35;;;;;;;11.98;3.63;;;25.10;85.80;;;;;;5069626;28;20856;-55
2021/03/11 10:46:03;;;;;;;12.68;4.50;;;25.10;85.90;;;;;;5067668;28;20482;-60
2021/03/11 10:48:45;;;;;;;17.63;4.20;;;25.10;86.00;;;;;;5072965;28;20020;-65
2021/03/11 10:51:18;;;;;;;14.65;4.90;;;25.10;86.10;;;;;;5070848;28;20020;-60
2021/03/11 10:53:49;;;;;;;13.65;4.53;;;25.10;86.00;;;;;;5067591;28;20082;-63
2021/03/11 10:56:17;;;;;;;12.52;4.07;;;25.10;86.20;;;;;;5064551;28;20487;-58
2021/03/11 10:58:44;;;;;;;13.88;4.18;;;25.00;86.00;;;;;;5070674;28;20036;-64
2021/03/11 11:01:14;;;;;;;14.55;4.40;;;25.10;86.10;;;;;;5068162;28;20113;-73
2021/03/11 11:03:43;;;;;;;13.35;4.50;;;25.00;85.90;;;;;;5070308;28;20544;-66
2021/03/11 11:06:10;;;;;;;10.57;3.60;;;25.00;85.90;;;;;;5067169;28;20047;-68
2021/03/11 11:08:42;;;;;;;9.77;3.28;;;25.00;85.90;;;;;;5070801;28;20020;-69
2021/03/11 11:11:10;;;;;;;;;;;25.00;85.90;;;;;;5071211;28;20044;-71
2021/03/11 11:13:37;;;;;;;9.95;4.10;;;25.00;85.90;;;;;;5069753;28;19943;-58
2021/03/11 11:16:05;;;;;;;11.90;4.15;;;25.00;85.90;;;;;;5068921;28;20679;-70
2021/03/11 11:18:32;;;;;;;11.68;4.50;;;24.90;85.80;;;;;;5071472;28;20017;-54
2021/03/11 11:21:01;;;;;;;14.25;4.28;;;25.00;85.90;;;;;;5071489;28;20486;-53
2021/03/11 11:23:28;;;;;;;12.52;3.95;;;24.90;85.80;;;;;;5069327;28;20039;-61
2021/03/11 11:26:42;;;;;;;12.88;3.70;;;24.90;86.00;;;;;;5068399;28;20020;-62
2021/03/11 11:29:11;;;;;;;11.18;3.63;;;25.00;85.90;;;;;;5037215;28;20506;-58
2021/03/11 11:31:39;;;;;;;11.73;3.70;;;24.90;86.00;;;;;;5067711;28;20039;-63
2021/03/11 11:34:06;;;;;;;10.85;3.53;;;24.90;85.90;;;;;;5068864;28;20024;-64
2021/03/11 11:36:34;;;;;;;10.75;4.03;;;24.90;85.90;;;;;;5066387;28;20509;-69
2021/03/11 11:39:01;;;;;;;11.90;3.92;;;24.90;85.80;;;;;;5069170;28;20482;-56
2021/03/11 11:41:28;;;;;;;12.70;4.28;;;24.90;85.90;;;;;;5069768;28;20085;-67
2021/03/11 11:43:57;;;;;;;10.50;3.78;;;24.90;85.90;;;;;;5067865;28;20048;-56
2021/03/11 11:51:09;;;;;;;8.68;3.13;;;24.90;85.80;;;;;;5071595;28;20105;-54
2021/03/11 11:54:08;;;;;;;9.02;3.67;;;24.90;85.80;;;;;;5020174;28;20080;-59
2021/03/11 11:56:51;;;;;;;9.73;3.63;;;24.90;85.90;;;;;;5064502;28;20025;-51
2021/03/11 11:59:19;;;;;;;9.00;3.40;;;24.90;86.50;;;;;;5066567;28;20021;-47
2021/03/11 12:02:04;;;;;;;7.57;3.20;;;24.80;85.90;;;;;;5067589;28;20039;-58
2021/03/11 12:04:32;;;;;;;7.78;3.45;;;24.90;85.90;;;;;;5063812;28;20457;-59
2021/03/11 12:07:00;;;;;;;6.85;3.13;;;24.80;85.90;;;;;;5066687;28;20094;-60
2021/03/11 12:13:02;;;;;;;11.23;3.78;;;24.80;85.80;;;;;;5066688;28;20095;-58
2021/03/11 12:15:29;;;;;;;10.75;3.53;;;24.80;85.80;;;;;;5066477;28;20036;-67
2021/03/11 12:17:56;;;;;;;7.43;3.75;;;24.80;85.90;;;;;;5069504;28;20017;-62
2021/03/11 12:20:24;;;;;;;8.50;3.45;;;24.80;85.80;;;;;;5071982;28;20036;-69
2021/03/11 12:22:51;;;;;;;7.95;3.20;;;24.80;85.80;;;;;;5071362;28;20037;-63
2021/03/11 12:25:18;;;;;;;9.90;3.55;;;24.70;85.70;;;;;;5072384;28;20016;-58
2021/03/11 12:27:46;;;;;;;8.05;2.83;;;24.80;85.80;;;;;;5072153;28;20024;-64
2021/03/11 12:30:14;;;;;;;9.27;3.00;;;24.80;85.80;;;;;;5072160;28;20025;-64
2021/03/11 12:32:41;;;;;;;9.02;3.70;;;24.70;85.70;;;;;;5067706;28;20112;-64
2021/03/11 12:35:09;;;;;;;9.07;2.88;;;24.70;85.70;;;;;;5071871;28;20428;-63
2021/03/11 12:37:36;;;;;;;11.13;3.75;;;24.70;85.70;;;;;;5071935;28;20082;-65
2021/03/11 12:40:04;;;;;;;8.75;3.22;;;24.70;85.70;;;;;;5072152;28;20021;-58
2021/03/11 12:42:58;;;;;;;8.93;3.25;;;24.70;85.70;;;;;;5073726;28;20051;-59
2021/03/11 12:45:32;;;;;;;8.55;3.28;;;24.70;85.80;;;;;;5071097;28;20593;-66
2021/03/11 12:48:14;;;;;;;7.25;3.05;;;24.60;85.80;;;;;;5073996;28;20115;-68
2021/03/11 12:50:41;;;;;;;11.32;3.97;;;24.60;85.70;;;;;;5074659;28;20033;-64
2021/03/11 12:53:09;;;;;;;11.63;3.15;;;24.70;85.80;;;;;;5076533;28;20283;-63
2021/03/11 12:55:37;;;;;;;6.05;3.10;;;24.60;85.80;;;;;;5076848;28;20386;-61
2021/03/11 12:58:04;;;;;;;11.15;3.97;;;24.60;85.80;;;;;;5075980;28;20028;-52
2021/03/11 13:00:32;;;;;;;8.82;3.00;;;24.60;85.90;;;;;;5075734;28;20020;-59
2021/03/11 13:02:59;;;;;;;7.72;3.08;;;24.60;85.90;;;;;;5072515;28;20035;-66
2021/03/11 13:05:26;;;;;;;10.23;3.30;;;24.60;85.90;;;;;;5075416;28;20097;-67
2021/03/11 13:07:54;;;;;;;7.25;2.72;;;24.50;86.50;;;;;;5076010;28;20017;-68
2021/03/11 13:10:21;;;;;;;10.88;3.78;;;24.50;86.00;;;;;;5076068;28;20035;-65
2021/03/11 13:12:49;;;;;;;8.73;3.10;;;24.50;86.10;;;;;;5076725;28;20032;-60